sensor_id;sensor_type;location;lat;lon;timestamp;pressure;altitude;pressure_sealevel;temperature;humidity
47154;BME280;32907;41.412;2.164;2023-06-26T00:01:55;100728.25;;;29.39;46.36
47154;BME280;32907;41.412;2.164;2023-06-26T00:04:23;100735.72;;;29.39;46.23
47154;BME280;32907;41.412;2.164;2023-06-26T00:06:52;100724.03;;;29.30;46.07
47154;BME280;32907;41.412;2.164;2023-06-26T00:09:19;100734.94;;;29.38;45.84
47154;BME280;32907;41.412;2.164;2023-06-26T00:11:47;100730.22;;;29.39;45.69
47154;BME280;32907;41.412;2.164;2023-06-26T00:14:15;100651.66;;;28.96;45.53
47154;BME280;32907;41.412;2.164;2023-06-26T00:16:43;100686.91;;;29.15;45.20
47154;BME280;32907;41.412;2.164;2023-06-26T00:19:12;100730.22;;;29.39;45.30
47154;BME280;32907;41.412;2.164;2023-06-26T00:21:41;100730.22;;;29.39;45.46
47154;BME280;32907;41.412;2.164;2023-06-26T00:24:14;100700.78;;;29.18;45.18
47154;BME280;32907;41.412;2.164;2023-06-26T00:26:46;100718.16;;;29.31;45.29
47154;BME280;32907;41.412;2.164;2023-06-26T00:29:14;100727.91;;;29.41;45.52
47154;BME280;32907;41.412;2.164;2023-06-26T00:31:42;100678.50;;;29.11;45.54
47154;BME280;32907;41.412;2.164;2023-06-26T00:34:10;100665.19;;;29.01;45.68
47154;BME280;32907;41.412;2.164;2023-06-26T00:36:38;100674.69;;;29.16;45.54
47154;BME280;32907;41.412;2.164;2023-06-26T00:39:07;100629.69;;;28.75;45.88
47154;BME280;32907;41.412;2.164;2023-06-26T00:41:36;100570.31;;;28.41;45.96
47154;BME280;32907;41.412;2.164;2023-06-26T00:44:05;100583.63;;;28.51;46.41
47154;BME280;32907;41.412;2.164;2023-06-26T00:46:34;100735.03;;;29.42;46.60
47154;BME280;32907;41.412;2.164;2023-06-26T00:49:03;100725.94;;;29.41;46.82
47154;BME280;32907;41.412;2.164;2023-06-26T00:51:31;100727.91;;;29.41;46.32
47154;BME280;32907;41.412;2.164;2023-06-26T00:54:01;100723.97;;;29.42;46.05
47154;BME280;32907;41.412;2.164;2023-06-26T00:56:31;100598.53;;;28.62;46.41
47154;BME280;32907;41.412;2.164;2023-06-26T00:58:59;100714.94;;;29.29;46.44
47154;BME280;32907;41.412;2.164;2023-06-26T01:01:27;100682.88;;;29.12;46.04
47154;BME280;32907;41.412;2.164;2023-06-26T01:03:55;100682.19;;;29.15;46.22
47154;BME280;32907;41.412;2.164;2023-06-26T01:06:27;100703.28;;;29.36;45.83
47154;BME280;32907;41.412;2.164;2023-06-26T01:08:59;100697.22;;;29.30;46.21
47154;BME280;32907;41.412;2.164;2023-06-26T01:11:28;100630.47;;;28.88;46.27
47154;BME280;32907;41.412;2.164;2023-06-26T01:13:57;100705.69;;;29.37;46.33
47154;BME280;32907;41.412;2.164;2023-06-26T01:16:28;100688.81;;;29.26;46.15
47154;BME280;32907;41.412;2.164;2023-06-26T01:18:57;100701.78;;;29.38;46.45
47154;BME280;32907;41.412;2.164;2023-06-26T01:21:26;100678.72;;;29.18;46.56
47154;BME280;32907;41.412;2.164;2023-06-26T01:24:17;100706.50;;;29.38;46.51
47154;BME280;32907;41.412;2.164;2023-06-26T01:26:50;100616.66;;;28.88;47.04
47154;BME280;32907;41.412;2.164;2023-06-26T01:29:20;100693.84;;;29.37;47.16
47154;BME280;32907;41.412;2.164;2023-06-26T01:31:51;100689.94;;;29.38;47.19
47154;BME280;32907;41.412;2.164;2023-06-26T01:34:21;100670.63;;;29.25;47.28
47154;BME280;32907;41.412;2.164;2023-06-26T01:36:50;100695.81;;;29.36;47.58
47154;BME280;32907;41.412;2.164;2023-06-26T01:39:19;100687.16;;;29.38;47.37
47154;BME280;32907;41.412;2.164;2023-06-26T01:41:46;100673.03;;;29.27;47.32
47154;BME280;32907;41.412;2.164;2023-06-26T01:44:27;100664.22;;;29.21;47.13
47154;BME280;32907;41.412;2.164;2023-06-26T01:47:03;100690.28;;;29.36;47.70
47154;BME280;32907;41.412;2.164;2023-06-26T01:49:49;100677.50;;;29.32;47.19
47154;BME280;32907;41.412;2.164;2023-06-26T01:52:20;100681.53;;;29.34;47.21
47154;BME280;32907;41.412;2.164;2023-06-26T01:54:54;100677.50;;;29.32;46.86
47154;BME280;32907;41.412;2.164;2023-06-26T01:57:26;100645.91;;;29.17;46.80
47154;BME280;32907;41.412;2.164;2023-06-26T01:59:56;100662.63;;;29.20;46.84
47154;BME280;32907;41.412;2.164;2023-06-26T02:02:28;100630.00;;;28.98;46.40
47154;BME280;32907;41.412;2.164;2023-06-26T02:04:56;100615.50;;;28.89;46.37
47154;BME280;32907;41.412;2.164;2023-06-26T02:07:24;100637.34;;;29.06;46.03
47154;BME280;32907;41.412;2.164;2023-06-26T02:09:52;100675.72;;;29.23;45.76
47154;BME280;32907;41.412;2.164;2023-06-26T02:12:20;100669.47;;;29.26;45.75
47154;BME280;32907;41.412;2.164;2023-06-26T02:14:51;100628.72;;;28.95;45.79
47154;BME280;32907;41.412;2.164;2023-06-26T02:17:23;100675.78;;;29.27;45.58
47154;BME280;32907;41.412;2.164;2023-06-26T02:19:54;100651.09;;;29.18;45.68
47154;BME280;32907;41.412;2.164;2023-06-26T02:22:22;100613.69;;;28.93;45.50
47154;BME280;32907;41.412;2.164;2023-06-26T02:24:50;100669.94;;;29.29;46.13
47154;BME280;32907;41.412;2.164;2023-06-26T02:27:18;100652.25;;;29.17;46.06
47154;BME280;32907;41.412;2.164;2023-06-26T02:29:46;100635.81;;;29.09;45.83
47154;BME280;32907;41.412;2.164;2023-06-26T02:32:13;100667.41;;;29.23;45.62
47154;BME280;32907;41.412;2.164;2023-06-26T02:34:41;100644.22;;;29.12;45.16
47154;BME280;32907;41.412;2.164;2023-06-26T02:37:09;100664.75;;;29.27;44.75
47154;BME280;32907;41.412;2.164;2023-06-26T02:39:39;100653.31;;;29.13;44.49
47154;BME280;32907;41.412;2.164;2023-06-26T02:42:09;100591.84;;;28.76;44.15
47154;BME280;32907;41.412;2.164;2023-06-26T02:44:37;100674.56;;;29.24;44.36
47154;BME280;32907;41.412;2.164;2023-06-26T02:47:05;100634.47;;;29.03;44.14
47154;BME280;32907;41.412;2.164;2023-06-26T02:49:38;100646.63;;;29.14;44.07
47154;BME280;32907;41.412;2.164;2023-06-26T02:52:06;100648.59;;;29.13;43.85
47154;BME280;32907;41.412;2.164;2023-06-26T02:54:34;100656.28;;;29.20;43.72
47154;BME280;32907;41.412;2.164;2023-06-26T02:57:04;100633.78;;;29.06;44.08
47154;BME280;32907;41.412;2.164;2023-06-26T02:59:34;100617.59;;;28.92;43.81
47154;BME280;32907;41.412;2.164;2023-06-26T03:02:02;100635.38;;;29.07;44.37
47154;BME280;32907;41.412;2.164;2023-06-26T03:04:36;100653.06;;;29.18;44.41
47154;BME280;32907;41.412;2.164;2023-06-26T03:07:06;100617.69;;;28.95;45.09
47154;BME280;32907;41.412;2.164;2023-06-26T03:09:34;100651.44;;;29.17;45.43
47154;BME280;32907;41.412;2.164;2023-06-26T03:12:02;100646.84;;;29.21;45.73
47154;BME280;32907;41.412;2.164;2023-06-26T03:14:32;100652.44;;;29.24;45.97
47154;BME280;32907;41.412;2.164;2023-06-26T03:17:01;100644.41;;;29.19;46.73
47154;BME280;32907;41.412;2.164;2023-06-26T03:19:33;100651.56;;;29.20;46.95
47154;BME280;32907;41.412;2.164;2023-06-26T03:22:15;100629.84;;;29.07;47.29
47154;BME280;32907;41.412;2.164;2023-06-26T03:24:44;100667.88;;;29.25;47.76
47154;BME280;32907;41.412;2.164;2023-06-26T03:27:14;100617.81;;;28.99;48.01
47154;BME280;32907;41.412;2.164;2023-06-26T03:29:46;100627.91;;;29.07;47.37
47154;BME280;32907;41.412;2.164;2023-06-26T03:32:14;100621.59;;;28.94;47.20
47154;BME280;32907;41.412;2.164;2023-06-26T03:34:42;100665.91;;;29.26;47.16
47154;BME280;32907;41.412;2.164;2023-06-26T03:37:11;100575.19;;;28.72;46.88
47154;BME280;32907;41.412;2.164;2023-06-26T03:39:39;100628.13;;;29.02;46.83
47154;BME280;32907;41.412;2.164;2023-06-26T03:42:09;100663.06;;;29.22;46.83
47154;BME280;32907;41.412;2.164;2023-06-26T03:44:37;100659.94;;;29.24;46.98
47154;BME280;32907;41.412;2.164;2023-06-26T03:47:06;100667.41;;;29.23;47.25
47154;BME280;32907;41.412;2.164;2023-06-26T03:49:35;100661.91;;;29.23;47.01
47154;BME280;32907;41.412;2.164;2023-06-26T03:52:04;100644.22;;;29.12;47.47
47154;BME280;32907;41.412;2.164;2023-06-26T03:54:32;100651.34;;;29.13;47.29
47154;BME280;32907;41.412;2.164;2023-06-26T03:57:01;100631.03;;;28.93;47.01
47154;BME280;32907;41.412;2.164;2023-06-26T03:59:30;100655.28;;;29.12;46.51
47154;BME280;32907;41.412;2.164;2023-06-26T04:01:58;100645.19;;;29.04;47.09
47154;BME280;32907;41.412;2.164;2023-06-26T04:04:26;100643.44;;;29.12;47.32
47154;BME280;32907;41.412;2.164;2023-06-26T04:06:58;100669.75;;;29.21;48.02
47154;BME280;32907;41.412;2.164;2023-06-26T04:09:27;100655.28;;;29.12;47.79
47154;BME280;32907;41.412;2.164;2023-06-26T04:11:55;100669.75;;;29.21;47.89
47154;BME280;32907;41.412;2.164;2023-06-26T04:14:23;100650.88;;;29.11;47.92
47154;BME280;32907;41.412;2.164;2023-06-26T04:16:51;100668.22;;;29.24;48.19
47154;BME280;32907;41.412;2.164;2023-06-26T04:19:18;100670.97;;;29.24;47.93
47154;BME280;32907;41.412;2.164;2023-06-26T04:21:47;100648.59;;;29.13;47.81
47154;BME280;32907;41.412;2.164;2023-06-26T04:24:15;100603.09;;;28.83;48.01
47154;BME280;32907;41.412;2.164;2023-06-26T04:26:43;100656.88;;;29.13;47.13
47154;BME280;32907;41.412;2.164;2023-06-26T04:29:13;100634.47;;;29.03;47.03
47154;BME280;32907;41.412;2.164;2023-06-26T04:31:41;100665.38;;;29.20;46.78
47154;BME280;32907;41.412;2.164;2023-06-26T04:34:09;100660.97;;;29.19;46.63
47154;BME280;32907;41.412;2.164;2023-06-26T04:36:36;100666.50;;;29.19;45.88
47154;BME280;32907;41.412;2.164;2023-06-26T04:39:06;100671.22;;;29.19;45.74
47154;BME280;32907;41.412;2.164;2023-06-26T04:41:34;100661.13;;;29.11;45.22
47154;BME280;32907;41.412;2.164;2023-06-26T04:44:02;100621.19;;;28.80;45.29
47154;BME280;32907;41.412;2.164;2023-06-26T04:46:30;100666.66;;;29.11;45.42
47154;BME280;32907;41.412;2.164;2023-06-26T04:48:59;100620.47;;;28.83;45.95
47154;BME280;32907;41.412;2.164;2023-06-26T04:51:27;100670.69;;;29.13;46.09
47154;BME280;32907;41.412;2.164;2023-06-26T04:53:56;100650.13;;;28.98;46.30
47154;BME280;32907;41.412;2.164;2023-06-26T04:56:24;100672.66;;;29.13;46.17
47154;BME280;32907;41.412;2.164;2023-06-26T04:58:52;100670.69;;;29.13;45.81
47154;BME280;32907;41.412;2.164;2023-06-26T05:01:20;100637.72;;;28.92;45.70
47154;BME280;32907;41.412;2.164;2023-06-26T05:03:47;100671.84;;;29.12;46.00
47154;BME280;32907;41.412;2.164;2023-06-26T05:06:15;100664.69;;;29.11;45.89
47154;BME280;32907;41.412;2.164;2023-06-26T05:08:44;100651.81;;;29.03;45.83
47154;BME280;32907;41.412;2.164;2023-06-26T05:11:12;100650.00;;;28.95;45.92
47154;BME280;32907;41.412;2.164;2023-06-26T05:13:40;100664.50;;;29.04;45.79
47154;BME280;32907;41.412;2.164;2023-06-26T05:16:09;100671.72;;;29.09;45.97
47154;BME280;32907;41.412;2.164;2023-06-26T05:18:36;100658.19;;;29.04;45.68
47154;BME280;32907;41.412;2.164;2023-06-26T05:21:04;100624.38;;;28.82;45.54
47154;BME280;32907;41.412;2.164;2023-06-26T05:23:34;100665.41;;;29.08;46.09
47154;BME280;32907;41.412;2.164;2023-06-26T05:26:03;100670.03;;;29.04;45.74
47154;BME280;32907;41.412;2.164;2023-06-26T05:28:31;100675.28;;;29.09;46.22
47154;BME280;32907;41.412;2.164;2023-06-26T05:31:00;100671.63;;;29.05;45.99
47154;BME280;32907;41.412;2.164;2023-06-26T05:33:28;100672.53;;;29.09;45.65
47154;BME280;32907;41.412;2.164;2023-06-26T05:35:56;100675.72;;;29.11;45.66
47154;BME280;32907;41.412;2.164;2023-06-26T05:38:26;100613.03;;;28.72;45.41
47154;BME280;32907;41.412;2.164;2023-06-26T05:40:55;100678.63;;;29.15;45.46
47154;BME280;32907;41.412;2.164;2023-06-26T05:43:23;100685.28;;;29.14;44.25
47154;BME280;32907;41.412;2.164;2023-06-26T05:45:57;100672.53;;;29.09;43.72
47154;BME280;32907;41.412;2.164;2023-06-26T05:48:33;100681.25;;;29.11;42.78
47154;BME280;32907;41.412;2.164;2023-06-26T05:51:02;100667.94;;;29.01;43.08
47154;BME280;32907;41.412;2.164;2023-06-26T05:53:31;100667.50;;;28.99;42.02
47154;BME280;32907;41.412;2.164;2023-06-26T05:55:59;100692.31;;;29.11;41.92
47154;BME280;32907;41.412;2.164;2023-06-26T05:58:27;100680.00;;;29.09;41.97
47154;BME280;32907;41.412;2.164;2023-06-26T06:00:55;100679.66;;;29.10;42.12
47154;BME280;32907;41.412;2.164;2023-06-26T06:03:23;100687.59;;;29.12;42.16
47154;BME280;32907;41.412;2.164;2023-06-26T06:05:52;100679.56;;;29.07;41.97
47154;BME280;32907;41.412;2.164;2023-06-26T06:08:21;100682.88;;;29.12;41.91
47154;BME280;32907;41.412;2.164;2023-06-26T06:10:48;100663.22;;;29.02;42.34
47154;BME280;32907;41.412;2.164;2023-06-26T06:13:16;100673.69;;;29.08;42.53
47154;BME280;32907;41.412;2.164;2023-06-26T06:15:44;100688.84;;;29.14;42.32
47154;BME280;32907;41.412;2.164;2023-06-26T06:18:12;100659.44;;;28.94;42.70
47154;BME280;32907;41.412;2.164;2023-06-26T06:20:41;100660.00;;;28.87;43.00
47154;BME280;32907;41.412;2.164;2023-06-26T06:23:10;100692.88;;;29.17;43.21
47154;BME280;32907;41.412;2.164;2023-06-26T06:25:38;100657.50;;;28.94;43.39
47154;BME280;32907;41.412;2.164;2023-06-26T06:28:06;100667.06;;;28.97;43.04
47154;BME280;32907;41.412;2.164;2023-06-26T06:30:34;100678.75;;;29.06;42.91
47154;BME280;32907;41.412;2.164;2023-06-26T06:33:12;100686.78;;;29.11;43.78
47154;BME280;32907;41.412;2.164;2023-06-26T06:35:40;100592.72;;;28.52;43.52
47154;BME280;32907;41.412;2.164;2023-06-26T06:38:11;100666.25;;;28.96;43.72
47154;BME280;32907;41.412;2.164;2023-06-26T06:40:38;100689.22;;;29.01;42.94
47154;BME280;32907;41.412;2.164;2023-06-26T06:43:07;100698.53;;;29.08;43.24
47154;BME280;32907;41.412;2.164;2023-06-26T06:45:35;100650.38;;;28.81;43.65
47154;BME280;32907;41.412;2.164;2023-06-26T06:48:05;100597.19;;;28.44;43.48
47154;BME280;32907;41.412;2.164;2023-06-26T06:50:35;100701.66;;;29.07;43.08
47154;BME280;32907;41.412;2.164;2023-06-26T06:53:03;100699.78;;;29.11;43.66
47154;BME280;32907;41.412;2.164;2023-06-26T06:55:31;100704.97;;;29.12;43.72
47154;BME280;32907;41.412;2.164;2023-06-26T06:57:59;100694.41;;;29.02;43.69
47154;BME280;32907;41.412;2.164;2023-06-26T07:00:31;100676.25;;;28.89;43.49
47154;BME280;32907;41.412;2.164;2023-06-26T07:02:59;100687.28;;;29.01;43.21
47154;BME280;32907;41.412;2.164;2023-06-26T07:05:28;100704.75;;;29.05;43.58
47154;BME280;32907;41.412;2.164;2023-06-26T07:07:56;100681.75;;;28.89;43.98
47154;BME280;32907;41.412;2.164;2023-06-26T07:10:27;100725.44;;;29.11;44.51
47154;BME280;32907;41.412;2.164;2023-06-26T07:12:55;100699.69;;;28.95;44.42
47154;BME280;32907;41.412;2.164;2023-06-26T07:15:25;100699.03;;;28.98;44.76
47154;BME280;32907;41.412;2.164;2023-06-26T07:17:54;100722.88;;;29.18;44.14
47154;BME280;32907;41.412;2.164;2023-06-26T07:20:22;100728.09;;;29.20;43.92
47154;BME280;32907;41.412;2.164;2023-06-26T07:22:50;100723.03;;;29.10;43.78
47154;BME280;32907;41.412;2.164;2023-06-26T07:25:19;100722.66;;;29.11;43.81
47154;BME280;32907;41.412;2.164;2023-06-26T07:27:47;100710.06;;;28.98;43.67
47154;BME280;32907;41.412;2.164;2023-06-26T07:30:15;100719.69;;;29.16;43.93
47154;BME280;32907;41.412;2.164;2023-06-26T07:32:44;100706.03;;;28.95;43.16
47154;BME280;32907;41.412;2.164;2023-06-26T07:35:12;100732.22;;;29.14;43.28
47154;BME280;32907;41.412;2.164;2023-06-26T07:37:42;100714.38;;;29.11;43.98
47154;BME280;32907;41.412;2.164;2023-06-26T07:40:10;100734.28;;;29.29;43.60
47154;BME280;32907;41.412;2.164;2023-06-26T07:42:38;100728.41;;;29.31;43.88
47154;BME280;32907;41.412;2.164;2023-06-26T07:45:08;100695.31;;;29.06;43.92
47154;BME280;32907;41.412;2.164;2023-06-26T07:47:40;100723.47;;;29.24;44.22
47154;BME280;32907;41.412;2.164;2023-06-26T07:50:09;100728.88;;;29.20;44.29
47154;BME280;32907;41.412;2.164;2023-06-26T07:52:37;100711.63;;;29.11;44.80
47154;BME280;32907;41.412;2.164;2023-06-26T07:55:05;100640.41;;;28.52;44.98
47154;BME280;32907;41.412;2.164;2023-06-26T07:57:33;100738.31;;;29.19;44.80
47154;BME280;32907;41.412;2.164;2023-06-26T08:00:02;100702.00;;;29.05;44.96
47154;BME280;32907;41.412;2.164;2023-06-26T08:02:40;100721.28;;;29.17;44.90
47154;BME280;32907;41.412;2.164;2023-06-26T08:05:08;100622.13;;;28.60;44.71
47154;BME280;32907;41.412;2.164;2023-06-26T08:07:37;100671.66;;;28.93;44.06
47154;BME280;32907;41.412;2.164;2023-06-26T08:10:05;100527.00;;;28.05;43.94
47154;BME280;32907;41.412;2.164;2023-06-26T08:12:33;100690.75;;;28.98;43.93
47154;BME280;32907;41.412;2.164;2023-06-26T08:15:02;100747.59;;;29.39;44.54
47154;BME280;32907;41.412;2.164;2023-06-26T08:17:33;100628.56;;;28.64;44.33
47154;BME280;32907;41.412;2.164;2023-06-26T08:20:01;100728.41;;;29.31;44.07
47154;BME280;32907;41.412;2.164;2023-06-26T08:22:29;100735.53;;;29.32;44.38
47154;BME280;32907;41.412;2.164;2023-06-26T08:24:57;100612.13;;;28.55;42.94
47154;BME280;32907;41.412;2.164;2023-06-26T08:27:25;100747.44;;;29.48;42.35
47154;BME280;32907;41.412;2.164;2023-06-26T08:29:53;100613.41;;;28.58;42.39
47154;BME280;32907;41.412;2.164;2023-06-26T08:32:21;100700.47;;;29.20;41.77
47154;BME280;32907;41.412;2.164;2023-06-26T08:34:49;100659.81;;;28.92;42.33
47154;BME280;32907;41.412;2.164;2023-06-26T08:37:19;100751.25;;;29.56;42.14
47154;BME280;32907;41.412;2.164;2023-06-26T08:39:49;100727.22;;;29.44;42.46
47154;BME280;32907;41.412;2.164;2023-06-26T08:42:17;100742.59;;;29.57;43.13
47154;BME280;32907;41.412;2.164;2023-06-26T08:44:45;100736.97;;;29.53;43.35
47154;BME280;32907;41.412;2.164;2023-06-26T08:47:29;100731.53;;;29.57;43.52
47154;BME280;32907;41.412;2.164;2023-06-26T08:50:08;100704.41;;;29.47;46.73
47154;BME280;32907;41.412;2.164;2023-06-26T08:52:57;100755.78;;;29.76;46.03
47154;BME280;32907;41.412;2.164;2023-06-26T08:55:31;100741.75;;;29.69;45.59
47154;BME280;32907;41.412;2.164;2023-06-26T08:58:01;100713.13;;;29.49;45.21
47154;BME280;32907;41.412;2.164;2023-06-26T09:00:30;100704.19;;;29.40;44.86
47154;BME280;32907;41.412;2.164;2023-06-26T09:02:59;100737.19;;;29.61;44.39
47154;BME280;32907;41.412;2.164;2023-06-26T09:05:28;100752.91;;;29.72;43.92
47154;BME280;32907;41.412;2.164;2023-06-26T09:07:56;100761.19;;;29.72;43.77
47154;BME280;32907;41.412;2.164;2023-06-26T09:10:25;100756.03;;;29.71;43.76
47154;BME280;32907;41.412;2.164;2023-06-26T09:12:57;100764.06;;;29.76;43.14
47154;BME280;32907;41.412;2.164;2023-06-26T09:15:26;100753.16;;;29.67;43.79
47154;BME280;32907;41.412;2.164;2023-06-26T09:17:56;100759.00;;;29.78;43.83
47154;BME280;32907;41.412;2.164;2023-06-26T09:20:28;100752.47;;;29.70;45.18
47154;BME280;32907;41.412;2.164;2023-06-26T09:22:59;100768.16;;;29.82;44.46
47154;BME280;32907;41.412;2.164;2023-06-26T09:25:28;100768.97;;;29.83;44.03
47154;BME280;32907;41.412;2.164;2023-06-26T09:27:59;100772.22;;;29.85;43.84
47154;BME280;32907;41.412;2.164;2023-06-26T09:30:27;100763.72;;;29.77;43.49
47154;BME280;32907;41.412;2.164;2023-06-26T09:32:56;100716.38;;;29.51;43.42
47154;BME280;32907;41.412;2.164;2023-06-26T09:35:27;100754.94;;;29.75;43.08
47154;BME280;32907;41.412;2.164;2023-06-26T09:37:55;100759.44;;;29.80;43.34
47154;BME280;32907;41.412;2.164;2023-06-26T09:40:25;100750.25;;;29.76;43.23
47154;BME280;32907;41.412;2.164;2023-06-26T09:42:53;100766.84;;;29.92;43.87
47154;BME280;32907;41.412;2.164;2023-06-26T09:45:22;100780.88;;;29.99;43.47
47154;BME280;32907;41.412;2.164;2023-06-26T09:47:51;100770.63;;;29.99;43.60
47154;BME280;32907;41.412;2.164;2023-06-26T09:50:23;100785.59;;;29.98;43.71
47154;BME280;32907;41.412;2.164;2023-06-26T09:52:54;100783.66;;;29.99;42.94
47154;BME280;32907;41.412;2.164;2023-06-26T09:55:22;100735.72;;;29.79;42.89
47154;BME280;32907;41.412;2.164;2023-06-26T09:57:51;100786.88;;;30.01;42.89
47154;BME280;32907;41.412;2.164;2023-06-26T10:00:19;100745.16;;;29.78;43.14
47154;BME280;32907;41.412;2.164;2023-06-26T10:02:47;100779.84;;;30.03;43.16
47154;BME280;32907;41.412;2.164;2023-06-26T10:05:15;100789.16;;;30.11;43.12
47154;BME280;32907;41.412;2.164;2023-06-26T10:07:45;100786.84;;;30.13;43.24
47154;BME280;32907;41.412;2.164;2023-06-26T10:10:14;100785.44;;;30.19;42.99
47154;BME280;32907;41.412;2.164;2023-06-26T10:12:47;100742.44;;;29.94;42.91
47154;BME280;32907;41.412;2.164;2023-06-26T10:15:17;100761.59;;;30.15;43.01
47154;BME280;32907;41.412;2.164;2023-06-26T10:17:47;100776.88;;;30.24;42.38
47154;BME280;32907;41.412;2.164;2023-06-26T10:20:17;100775.25;;;30.23;41.78
47154;BME280;32907;41.412;2.164;2023-06-26T10:22:47;100792.84;;;30.31;41.13
47154;BME280;32907;41.412;2.164;2023-06-26T10:25:19;100768.38;;;30.17;39.95
47154;BME280;32907;41.412;2.164;2023-06-26T10:27:59;100782.84;;;30.26;39.63
47154;BME280;32907;41.412;2.164;2023-06-26T10:30:33;100783.72;;;30.30;39.24
47154;BME280;32907;41.412;2.164;2023-06-26T10:33:03;100788.56;;;30.33;39.38
47154;BME280;32907;41.412;2.164;2023-06-26T10:35:32;100790.63;;;30.36;40.53
47154;BME280;32907;41.412;2.164;2023-06-26T10:38:01;100789.81;;;30.36;39.60
47154;BME280;32907;41.412;2.164;2023-06-26T10:41:01;100786.69;;;30.38;41.29
47154;BME280;32907;41.412;2.164;2023-06-26T10:43:38;100797.75;;;30.38;41.10
47154;BME280;32907;41.412;2.164;2023-06-26T10:46:09;100799.34;;;30.39;40.52
47154;BME280;32907;41.412;2.164;2023-06-26T10:48:57;100740.09;;;30.08;40.41
47154;BME280;32907;41.412;2.164;2023-06-26T10:51:30;100774.56;;;30.26;42.03
47154;BME280;32907;41.412;2.164;2023-06-26T10:54:00;100802.06;;;30.51;42.37
47154;BME280;32907;41.412;2.164;2023-06-26T10:56:46;100776.53;;;30.42;43.34
47154;BME280;32907;41.412;2.164;2023-06-26T10:59:21;100800.63;;;30.57;43.59
47154;BME280;32907;41.412;2.164;2023-06-26T11:04:45;100798.56;;;30.54;42.87
47154;BME280;32907;41.412;2.164;2023-06-26T11:07:18;100792.59;;;30.52;42.77
47154;BME280;32907;41.412;2.164;2023-06-26T11:10:08;100796.53;;;30.51;43.42
47154;BME280;32907;41.412;2.164;2023-06-26T11:12:40;100741.06;;;30.16;42.96
47154;BME280;32907;41.412;2.164;2023-06-26T11:15:11;100795.00;;;30.53;42.57
47154;BME280;32907;41.412;2.164;2023-06-26T11:17:42;100795.91;;;30.57;42.80
47154;BME280;32907;41.412;2.164;2023-06-26T11:20:13;100808.13;;;30.56;42.79
47154;BME280;32907;41.412;2.164;2023-06-26T11:22:42;100766.81;;;30.32;43.43
47154;BME280;32907;41.412;2.164;2023-06-26T11:25:11;100807.69;;;30.70;42.28
47154;BME280;32907;41.412;2.164;2023-06-26T11:27:42;100786.50;;;30.62;42.16
47154;BME280;32907;41.412;2.164;2023-06-26T11:30:23;100780.09;;;30.58;42.06
47154;BME280;32907;41.412;2.164;2023-06-26T11:32:51;100778.50;;;30.57;42.83
47154;BME280;32907;41.412;2.164;2023-06-26T11:35:23;100782.50;;;30.59;43.10
47154;BME280;32907;41.412;2.164;2023-06-26T11:38:00;100795.28;;;30.64;43.81
47154;BME280;32907;41.412;2.164;2023-06-26T11:40:33;100798.53;;;30.66;43.38
47154;BME280;32907;41.412;2.164;2023-06-26T11:43:02;100798.16;;;30.68;43.34
47154;BME280;32907;41.412;2.164;2023-06-26T11:45:31;100798.06;;;30.64;43.11
47154;BME280;32907;41.412;2.164;2023-06-26T11:48:00;100760.81;;;30.46;43.35
47154;BME280;32907;41.412;2.164;2023-06-26T11:50:29;100803.34;;;30.69;43.39
47154;BME280;32907;41.412;2.164;2023-06-26T11:52:58;100781.25;;;30.57;43.40
47154;BME280;32907;41.412;2.164;2023-06-26T11:55:26;100791.03;;;30.67;42.49
47154;BME280;32907;41.412;2.164;2023-06-26T11:57:55;100790.28;;;30.70;42.50
47154;BME280;32907;41.412;2.164;2023-06-26T12:00:23;100789.06;;;30.67;42.76
47154;BME280;32907;41.412;2.164;2023-06-26T12:02:52;100779.47;;;30.64;43.12
47154;BME280;32907;41.412;2.164;2023-06-26T12:05:20;100800.94;;;30.68;42.99
47154;BME280;32907;41.412;2.164;2023-06-26T12:07:49;100798.53;;;30.66;43.05
47154;BME280;32907;41.412;2.164;2023-06-26T12:10:19;100730.72;;;30.28;42.68
47154;BME280;32907;41.412;2.164;2023-06-26T12:12:48;100784.03;;;30.57;43.10
47154;BME280;32907;41.412;2.164;2023-06-26T12:15:16;100782.06;;;30.57;43.24
47154;BME280;32907;41.412;2.164;2023-06-26T12:17:44;100768.66;;;30.44;43.27
47154;BME280;32907;41.412;2.164;2023-06-26T12:20:21;100774.28;;;30.47;43.84
47154;BME280;32907;41.412;2.164;2023-06-26T12:22:49;100777.78;;;30.44;43.84
47154;BME280;32907;41.412;2.164;2023-06-26T12:25:22;100757.84;;;30.39;43.90
47154;BME280;32907;41.412;2.164;2023-06-26T12:27:50;100772.97;;;30.57;43.89
47154;BME280;32907;41.412;2.164;2023-06-26T12:30:18;100800.56;;;30.69;44.24
47154;BME280;32907;41.412;2.164;2023-06-26T12:32:47;100790.66;;;30.68;44.19
47154;BME280;32907;41.412;2.164;2023-06-26T12:35:15;100779.81;;;30.63;43.69
47154;BME280;32907;41.412;2.164;2023-06-26T12:37:44;100779.59;;;30.68;43.77
47154;BME280;32907;41.412;2.164;2023-06-26T12:40:18;100765.97;;;30.63;44.22
47154;BME280;32907;41.412;2.164;2023-06-26T12:42:47;100776.44;;;30.70;43.92
47154;BME280;32907;41.412;2.164;2023-06-26T12:45:16;100736.34;;;30.48;44.26
47154;BME280;32907;41.412;2.164;2023-06-26T12:47:47;100756.63;;;30.68;43.65
47154;BME280;32907;41.412;2.164;2023-06-26T12:50:16;100773.41;;;30.75;43.73
47154;BME280;32907;41.412;2.164;2023-06-26T12:52:45;100691.81;;;30.37;44.26
47154;BME280;32907;41.412;2.164;2023-06-26T12:55:13;100775.91;;;30.80;44.16
47154;BME280;32907;41.412;2.164;2023-06-26T12:57:40;100735.53;;;30.63;43.68
47154;BME280;32907;41.412;2.164;2023-06-26T13:00:09;100763.31;;;30.82;43.57
47154;BME280;32907;41.412;2.164;2023-06-26T13:02:37;100714.38;;;30.55;43.43
47154;BME280;32907;41.412;2.164;2023-06-26T13:05:05;100760.63;;;30.86;44.15
47154;BME280;32907;41.412;2.164;2023-06-26T13:07:33;100757.78;;;30.82;44.10